(°C)
(°C)
Ν
Ν
ΝΝΔ
ΝΝΔ
ΝΝΔ
ΝΝΔ
ΝΝΔ
(χλμ / ω)
24-41
23-41
24-41
24-42
25-41
24-41
24-39
(χιλιοστά)
0
0
0
1
1.7
0
0
(%)
33
32
39
53
45
39
32

Ανύψωση ήλιου

/ 2.4°
sun-icon
UV 0
08:03
17:57
Φθίνων αμφίκυρτος (φάση σελήνης) (201°)
18:29
09:54

METAR για 57.92°Β 56.02°Α (USPP)

Χρόνος Συνθήκες Θερμοκρασία/
Σημείο δρόσου
Άνεμος Ορατότητα Καιρός Νέφη Πίεση Αλλαγή Ανεπεξέργαστο
IFR 9°C / 7°C 220º 16kt 9000m - Overcast 700ft 992 Temporary: Visibility 1500. Mist . RMK QFE733 . Runway 21: Wet or puddles, 51-100% contamination with 1mm, friction coefficient 0.50. USPP 221200Z 22008MPS 9000 OVC007 09/07 Q0992 R21/290150 TEMPO 1500 BR RMK QFE733
IFR 9°C / 7°C 220º 17kt 9000m - Overcast 600ft 992 Temporary: Visibility 1500. Mist . RMK QBB200 QFE733 . Runway 21: Wet or puddles, 51-100% contamination with 1mm, friction coefficient 0.50. USPP 221130Z 22009MPS 9000 OVC006 09/07 Q0992 R21/290150 TEMPO 1500 BR RMK QBB200 QFE733
IFR 8°C / 7°C 220º 16kt 9000m - Broken Clouds 600ft
Overcast 1700ft
992 No Significant change. Runway 21: Wet or puddles, 51-100% contamination with 1mm, friction coefficient 0.50. USPP 221100Z 22008MPS 9000 BKN006 OVC017 08/07 Q0992 R21/290150 NOSIG RMK QBB190 QFE734
IFR 8°C / 7°C 210º 16kt >10km - Broken Clouds 700ft
Overcast 1700ft
992 No Significant change. Runway 21: Wet or puddles, 51-100% contamination with 1mm, friction coefficient 0.50. USPP 221030Z 21008MPS 9999 BKN007 OVC017 08/07 Q0992 R21/290150 NOSIG RMK QFE734
IFR 8°C / 7°C 210º 12kt >10km Light Rain 1.00mm precipitation Vertical Visibility of 0ft.
Overcast 1700ft
993 No Significant change. Runway 21: Wet or puddles, 51-100% contamination with 1mm, friction coefficient 0.50. USPP 221000Z 21006MPS 9999 -RA BKN009 OVC017 08/07 Q0993 R21/290150 NOSIG RMK QFE734
IFR 8°C / 6°C 220º 14kt. Wind Shear present on Runway 21. >10km Light Rain 1.00mm precipitation Vertical Visibility of 0ft.
Overcast 2700ft
993 No Significant change. Runway 21: Wet or puddles, 51-100% contamination with 1mm, friction coefficient 0.50. USPP 220930Z 22007MPS 9999 -RA BKN007 OVC027 08/06 Q0993 WS R21 R21/290150 NOSIG RMK QFE734
IFR 7°C / 6°C 220º 16kt. Wind Shear present on Runway 21. >10km Light Rain 1.00mm precipitation Vertical Visibility of 0ft.
Overcast 2300ft
993 No Significant change. Runway 21: Wet or puddles, 51-100% contamination with 1mm, friction coefficient 0.50. USPP 220900Z 22008MPS 9999 -RA BKN005 OVC023 07/06 Q0993 WS R21 R21/290150 NOSIG RMK QBB160 QFE734
IFR 7°C / 6°C 220º 16kt >10km - Broken Clouds 600ft
Broken Clouds 2300ft
994 No Significant change. Runway 21: Wet or puddles, 51-100% contamination with 1mm, friction coefficient 0.50. USPP 220830Z 22008MPS 9999 BKN006 BKN023 07/06 Q0994 R21/290150 NOSIG RMK QBB190 QFE735
IFR 7°C / 6°C 220º 12kt >10km Light Rain 1.00mm precipitation Vertical Visibility of 0ft.
Overcast 2600ft
993 No Significant change. Runway 21: Wet or puddles, 51-100% contamination with 1mm, friction coefficient 0.50. USPP 220800Z 22006MPS 9999 -RA BKN007 OVC026 07/06 Q0993 R21/290150 NOSIG RMK QFE735
IFR 7°C / 6°C 220º 14kt >10km Light Rain 1.00mm precipitation Vertical Visibility of 0ft.
Overcast 2800ft
994 No Significant change. Runway 21: Wet or puddles, 51-100% contamination with 1mm, friction coefficient 0.50. USPP 220730Z 22007MPS 9999 -RA BKN006 OVC028 07/06 Q0994 R21/290150 NOSIG RMK QBB180 QFE735
LIFR 7°C / 5°C 230º 10kt >10km - Overcast 400ft 994 No Significant change. Runway 21: Wet or puddles, 51-100% contamination with 1mm, friction coefficient 0.50. USPP 220700Z 23005MPS 9999 OVC004 07/05 Q0994 R21/290150 NOSIG RMK QBB130 QFE735
LIFR 6°C / 5°C 220º 14kt >10km - Overcast 400ft 994 No Significant change. Runway 21: Wet or puddles, 51-100% contamination with 1mm, friction coefficient 0.50. USPP 220630Z 22007MPS 9999 OVC004 06/05 Q0994 R21/290150 NOSIG RMK QBB130 QFE735
LIFR 6°C / 5°C 220º 12kt >10km - Overcast 400ft 994 No Significant change. Runway 21: Wet or puddles, 51-100% contamination with 1mm, friction coefficient 0.50. USPP 220600Z 22006MPS 9999 OVC004 06/05 Q0994 R21/290150 NOSIG RMK QBB140 QFE735
LIFR 6°C / 4°C 220º 12kt >10km - Overcast 400ft 994 No Significant change. Runway 21: Wet or puddles, 51-100% contamination with 1mm, friction coefficient 0.50. USPP 220530Z 22006MPS 9999 OVC004 06/04 Q0994 R21/290150 NOSIG RMK QBB130 QFE735
LIFR 5°C / 4°C 210º 12kt >10km - Overcast 400ft 995 No Significant change. Runway 21: Wet or puddles, 51-100% contamination with 1mm, friction coefficient 0.50. USPP 220500Z 21006MPS 9999 OVC004 05/04 Q0995 R21/290150 NOSIG RMK QBB130 QFE735
LIFR 5°C / 4°C 220º 14kt >10km - Overcast 300ft 995 No Significant change. Runway 21: Wet or puddles, 51-100% contamination with 1mm, friction coefficient 0.50. USPP 220430Z 22007MPS 9999 OVC003 05/04 Q0995 R21/290150 NOSIG RMK QBB110 QFE736
LIFR 4°C / 3°C 220º 12kt >10km - Overcast 400ft 995 No Significant change. Runway 21: Wet or puddles, 11-25% contamination with 1mm, friction coefficient 0.50. USPP 220400Z 22006MPS 9999 OVC004 04/03 Q0995 R21/220150 NOSIG RMK QBB120 QFE736
LIFR 4°C / 3°C 230º 10kt >10km - Overcast 400ft 995 No Significant change. Runway 21: Wet or puddles, 11-25% contamination with 1mm, friction coefficient 0.50. USPP 220330Z 23005MPS 9999 OVC004 04/03 Q0995 R21/220150 NOSIG RMK QBB140 QFE735
IFR 3°C / 2°C 230º 8kt >10km - Overcast 500ft 995 No Significant change. Runway 21: Wet or puddles, 11-25% contamination with 1mm, friction coefficient 0.50. USPP 220300Z 23004MPS 9999 OVC005 03/02 Q0995 R21/220150 NOSIG RMK QBB150 QFE735
LIFR 3°C / 2°C 220º 10kt >10km - Overcast 400ft 995 No Significant change. Runway 21: Wet or puddles, 11-25% contamination with 1mm, friction coefficient 0.50. USPP 220230Z 22005MPS 9999 OVC004 03/02 Q0995 R21/220150 NOSIG RMK QBB130 QFE735
LIFR 3°C / 2°C 230º 12kt >10km - Overcast 400ft 995 No Significant change. Runway 21: Slush, 11-25% contamination with 3mm, friction coefficient 0.45. USPP 220200Z 23006MPS 9999 OVC004 03/02 Q0995 R21/620345 NOSIG RMK QBB140 QFE735
IFR 3°C / 2°C 230º 10kt >10km - Overcast 500ft 994 No Significant change. Runway 21: Slush, 11-25% contamination with 3mm, friction coefficient 0.45. USPP 220130Z 23005MPS 9999 OVC005 03/02 Q0994 R21/620345 NOSIG RMK QBB170 QFE735
IFR 3°C / 1°C 230º 10kt >10km - Overcast 700ft 994 No Significant change. Runway 21: Slush, 11-25% contamination with 3mm, friction coefficient 0.45. USPP 220100Z 23005MPS 9999 OVC007 03/01 Q0994 R21/620345 NOSIG RMK QFE735
IFR 3°C / 1°C 240º 12kt >10km - Overcast 600ft 994 No Significant change. Runway 21: Slush, 11-25% contamination with 3mm, friction coefficient 0.45. USPP 220030Z 24006MPS 9999 OVC006 03/01 Q0994 R21/620345 NOSIG RMK QBB190 QFE735

IFR

9°C / 7°C

[Περισσότερο]
Άνεμος 220º 16kt
Ορατότητα 9000m
Καιρός -
Νέφη Overcast 700ft
Πίεση 992
Αλλαγή Temporary: Visibility 1500. Mist . RMK QFE733 . Runway 21: Wet or puddles, 51-100% contamination with 1mm, friction coefficient 0.50.
Ανεπεξέργαστο USPP 221200Z 22008MPS 9000 OVC007 09/07 Q0992 R21/290150 TEMPO 1500 BR RMK QFE733

IFR

9°C / 7°C

[Περισσότερο]
Άνεμος 220º 17kt
Ορατότητα 9000m
Καιρός -
Νέφη Overcast 600ft
Πίεση 992
Αλλαγή Temporary: Visibility 1500. Mist . RMK QBB200 QFE733 . Runway 21: Wet or puddles, 51-100% contamination with 1mm, friction coefficient 0.50.
Ανεπεξέργαστο USPP 221130Z 22009MPS 9000 OVC006 09/07 Q0992 R21/290150 TEMPO 1500 BR RMK QBB200 QFE733

IFR

8°C / 7°C

[Περισσότερο]
Άνεμος 220º 16kt
Ορατότητα 9000m
Καιρός -
Νέφη Broken Clouds 600ft
Overcast 1700ft
Πίεση 992
Αλλαγή No Significant change. Runway 21: Wet or puddles, 51-100% contamination with 1mm, friction coefficient 0.50.
Ανεπεξέργαστο USPP 221100Z 22008MPS 9000 BKN006 OVC017 08/07 Q0992 R21/290150 NOSIG RMK QBB190 QFE734

IFR

8°C / 7°C

[Περισσότερο]
Άνεμος 210º 16kt
Ορατότητα >10km
Καιρός -
Νέφη Broken Clouds 700ft
Overcast 1700ft
Πίεση 992
Αλλαγή No Significant change. Runway 21: Wet or puddles, 51-100% contamination with 1mm, friction coefficient 0.50.
Ανεπεξέργαστο USPP 221030Z 21008MPS 9999 BKN007 OVC017 08/07 Q0992 R21/290150 NOSIG RMK QFE734

IFR

8°C / 7°C

[Περισσότερο]
Άνεμος 210º 12kt
Ορατότητα >10km
Καιρός Light Rain 1.00mm precipitation
Νέφη Vertical Visibility of 0ft.
Overcast 1700ft
Πίεση 993
Αλλαγή No Significant change. Runway 21: Wet or puddles, 51-100% contamination with 1mm, friction coefficient 0.50.
Ανεπεξέργαστο USPP 221000Z 21006MPS 9999 -RA BKN009 OVC017 08/07 Q0993 R21/290150 NOSIG RMK QFE734

IFR

8°C / 6°C

[Περισσότερο]
Άνεμος 220º 14kt. Wind Shear present on Runway 21.
Ορατότητα >10km
Καιρός Light Rain 1.00mm precipitation
Νέφη Vertical Visibility of 0ft.
Overcast 2700ft
Πίεση 993
Αλλαγή No Significant change. Runway 21: Wet or puddles, 51-100% contamination with 1mm, friction coefficient 0.50.
Ανεπεξέργαστο USPP 220930Z 22007MPS 9999 -RA BKN007 OVC027 08/06 Q0993 WS R21 R21/290150 NOSIG RMK QFE734

IFR

7°C / 6°C

[Περισσότερο]
Άνεμος 220º 16kt. Wind Shear present on Runway 21.
Ορατότητα >10km
Καιρός Light Rain 1.00mm precipitation
Νέφη Vertical Visibility of 0ft.
Overcast 2300ft
Πίεση 993
Αλλαγή No Significant change. Runway 21: Wet or puddles, 51-100% contamination with 1mm, friction coefficient 0.50.
Ανεπεξέργαστο USPP 220900Z 22008MPS 9999 -RA BKN005 OVC023 07/06 Q0993 WS R21 R21/290150 NOSIG RMK QBB160 QFE734

IFR

7°C / 6°C

[Περισσότερο]
Άνεμος 220º 16kt
Ορατότητα >10km
Καιρός -
Νέφη Broken Clouds 600ft
Broken Clouds 2300ft
Πίεση 994
Αλλαγή No Significant change. Runway 21: Wet or puddles, 51-100% contamination with 1mm, friction coefficient 0.50.
Ανεπεξέργαστο USPP 220830Z 22008MPS 9999 BKN006 BKN023 07/06 Q0994 R21/290150 NOSIG RMK QBB190 QFE735

IFR

7°C / 6°C

[Περισσότερο]
Άνεμος 220º 12kt
Ορατότητα >10km
Καιρός Light Rain 1.00mm precipitation
Νέφη Vertical Visibility of 0ft.
Overcast 2600ft
Πίεση 993
Αλλαγή No Significant change. Runway 21: Wet or puddles, 51-100% contamination with 1mm, friction coefficient 0.50.
Ανεπεξέργαστο USPP 220800Z 22006MPS 9999 -RA BKN007 OVC026 07/06 Q0993 R21/290150 NOSIG RMK QFE735

IFR

7°C / 6°C

[Περισσότερο]
Άνεμος 220º 14kt
Ορατότητα >10km
Καιρός Light Rain 1.00mm precipitation
Νέφη Vertical Visibility of 0ft.
Overcast 2800ft
Πίεση 994
Αλλαγή No Significant change. Runway 21: Wet or puddles, 51-100% contamination with 1mm, friction coefficient 0.50.
Ανεπεξέργαστο USPP 220730Z 22007MPS 9999 -RA BKN006 OVC028 07/06 Q0994 R21/290150 NOSIG RMK QBB180 QFE735

LIFR

7°C / 5°C

[Περισσότερο]
Άνεμος 230º 10kt
Ορατότητα >10km
Καιρός -
Νέφη Overcast 400ft
Πίεση 994
Αλλαγή No Significant change. Runway 21: Wet or puddles, 51-100% contamination with 1mm, friction coefficient 0.50.
Ανεπεξέργαστο USPP 220700Z 23005MPS 9999 OVC004 07/05 Q0994 R21/290150 NOSIG RMK QBB130 QFE735

LIFR

6°C / 5°C

[Περισσότερο]
Άνεμος 220º 14kt
Ορατότητα >10km
Καιρός -
Νέφη Overcast 400ft
Πίεση 994
Αλλαγή No Significant change. Runway 21: Wet or puddles, 51-100% contamination with 1mm, friction coefficient 0.50.
Ανεπεξέργαστο USPP 220630Z 22007MPS 9999 OVC004 06/05 Q0994 R21/290150 NOSIG RMK QBB130 QFE735

LIFR

6°C / 5°C

[Περισσότερο]
Άνεμος 220º 12kt
Ορατότητα >10km
Καιρός -
Νέφη Overcast 400ft
Πίεση 994
Αλλαγή No Significant change. Runway 21: Wet or puddles, 51-100% contamination with 1mm, friction coefficient 0.50.
Ανεπεξέργαστο USPP 220600Z 22006MPS 9999 OVC004 06/05 Q0994 R21/290150 NOSIG RMK QBB140 QFE735

LIFR

6°C / 4°C

[Περισσότερο]
Άνεμος 220º 12kt
Ορατότητα >10km
Καιρός -
Νέφη Overcast 400ft
Πίεση 994
Αλλαγή No Significant change. Runway 21: Wet or puddles, 51-100% contamination with 1mm, friction coefficient 0.50.
Ανεπεξέργαστο USPP 220530Z 22006MPS 9999 OVC004 06/04 Q0994 R21/290150 NOSIG RMK QBB130 QFE735

LIFR

5°C / 4°C

[Περισσότερο]
Άνεμος 210º 12kt
Ορατότητα >10km
Καιρός -
Νέφη Overcast 400ft
Πίεση 995
Αλλαγή No Significant change. Runway 21: Wet or puddles, 51-100% contamination with 1mm, friction coefficient 0.50.
Ανεπεξέργαστο USPP 220500Z 21006MPS 9999 OVC004 05/04 Q0995 R21/290150 NOSIG RMK QBB130 QFE735

LIFR

5°C / 4°C

[Περισσότερο]
Άνεμος 220º 14kt
Ορατότητα >10km
Καιρός -
Νέφη Overcast 300ft
Πίεση 995
Αλλαγή No Significant change. Runway 21: Wet or puddles, 51-100% contamination with 1mm, friction coefficient 0.50.
Ανεπεξέργαστο USPP 220430Z 22007MPS 9999 OVC003 05/04 Q0995 R21/290150 NOSIG RMK QBB110 QFE736

LIFR

4°C / 3°C

[Περισσότερο]
Άνεμος 220º 12kt
Ορατότητα >10km
Καιρός -
Νέφη Overcast 400ft
Πίεση 995
Αλλαγή No Significant change. Runway 21: Wet or puddles, 11-25% contamination with 1mm, friction coefficient 0.50.
Ανεπεξέργαστο USPP 220400Z 22006MPS 9999 OVC004 04/03 Q0995 R21/220150 NOSIG RMK QBB120 QFE736

LIFR

4°C / 3°C

[Περισσότερο]
Άνεμος 230º 10kt
Ορατότητα >10km
Καιρός -
Νέφη Overcast 400ft
Πίεση 995
Αλλαγή No Significant change. Runway 21: Wet or puddles, 11-25% contamination with 1mm, friction coefficient 0.50.
Ανεπεξέργαστο USPP 220330Z 23005MPS 9999 OVC004 04/03 Q0995 R21/220150 NOSIG RMK QBB140 QFE735

IFR

3°C / 2°C

[Περισσότερο]
Άνεμος 230º 8kt
Ορατότητα >10km
Καιρός -
Νέφη Overcast 500ft
Πίεση 995
Αλλαγή No Significant change. Runway 21: Wet or puddles, 11-25% contamination with 1mm, friction coefficient 0.50.
Ανεπεξέργαστο USPP 220300Z 23004MPS 9999 OVC005 03/02 Q0995 R21/220150 NOSIG RMK QBB150 QFE735

LIFR

3°C / 2°C

[Περισσότερο]
Άνεμος 220º 10kt
Ορατότητα >10km
Καιρός -
Νέφη Overcast 400ft
Πίεση 995
Αλλαγή No Significant change. Runway 21: Wet or puddles, 11-25% contamination with 1mm, friction coefficient 0.50.
Ανεπεξέργαστο USPP 220230Z 22005MPS 9999 OVC004 03/02 Q0995 R21/220150 NOSIG RMK QBB130 QFE735

LIFR

3°C / 2°C

[Περισσότερο]
Άνεμος 230º 12kt
Ορατότητα >10km
Καιρός -
Νέφη Overcast 400ft
Πίεση 995
Αλλαγή No Significant change. Runway 21: Slush, 11-25% contamination with 3mm, friction coefficient 0.45.
Ανεπεξέργαστο USPP 220200Z 23006MPS 9999 OVC004 03/02 Q0995 R21/620345 NOSIG RMK QBB140 QFE735

IFR

3°C / 2°C

[Περισσότερο]
Άνεμος 230º 10kt
Ορατότητα >10km
Καιρός -
Νέφη Overcast 500ft
Πίεση 994
Αλλαγή No Significant change. Runway 21: Slush, 11-25% contamination with 3mm, friction coefficient 0.45.
Ανεπεξέργαστο USPP 220130Z 23005MPS 9999 OVC005 03/02 Q0994 R21/620345 NOSIG RMK QBB170 QFE735

IFR

3°C / 1°C

[Περισσότερο]
Άνεμος 230º 10kt
Ορατότητα >10km
Καιρός -
Νέφη Overcast 700ft
Πίεση 994
Αλλαγή No Significant change. Runway 21: Slush, 11-25% contamination with 3mm, friction coefficient 0.45.
Ανεπεξέργαστο USPP 220100Z 23005MPS 9999 OVC007 03/01 Q0994 R21/620345 NOSIG RMK QFE735

IFR

3°C / 1°C

[Περισσότερο]
Άνεμος 240º 12kt
Ορατότητα >10km
Καιρός -
Νέφη Overcast 600ft
Πίεση 994
Αλλαγή No Significant change. Runway 21: Slush, 11-25% contamination with 3mm, friction coefficient 0.45.
Ανεπεξέργαστο USPP 220030Z 24006MPS 9999 OVC006 03/01 Q0994 R21/620345 NOSIG RMK QBB190 QFE735

TAF για 57.92°Β 56.02°Α (USPP)

From till


From till Wind 230º 10kt. Gust 27kt. Visibility 6000m. Light Rain . Overcast 800ft.
Temporarly from till Overcast 400ft.
Becoming from till Wind 230º 10kt. Gust 27kt. Visibility 6000m. Light Rain . Broken Clouds 1600ft.
Becoming from till Wind 230º 10kt. Gust 27kt. Visibility 10km or more. Broken Clouds 1600ft.

Ανεπεξέργαστο: TAF USPP 221055Z 2212/2312 23005G14MPS 6000 -RA OVC008 TEMPO 2212/2215 OVC004 BECMG 2216/2217 BKN016 BECMG 2304/2306 9999 NSW

Τρέχουσες εικόνες δορυφόρου και βροχής για 57.92°Β 56.02°Α

Η ένδειξη τοποθεσίας τοποθετείται στο 57.92°Β 56.02°Α. [Περισσότερο]

Οι δορυφορικές εικόνες σε πραγματικό χρόνο συνδυάζουν ορατό φως κατά τη διάρκεια της ημέρας με υπέρυθρη ακτινοβολία κατά τη διάρκεια της νύχτας. Κατά τη διάρκεια της νύχτας, η εικόνα δεν είναι σκοτεινή μιας και η υπέρυθρη ακτινοβολία μπορεί να εντοπίσει τις διαφορές στη θερμοκρασία. Δυστυχώς, είναι δύσκολο να ξεχωρίσουν οι χαμηλές νεφώσεις και η ομίχλη από τις θερμοκρασίες εδάφους και έτσι μπορεί να είναι σχετικά αόρατα κατά τη διάρκεια της νύχτας. Οι εικόνες από τον δορυφόρο Meteosat για την Ευρώπη ενημερώνονται σε πραγματικό χρόνο κάθε 5 λεπτά. Οι εικόνες από τους δορυφόρους GOES-16/GOES-17 (Βόρεια & Λατινική Αμερική) και Himawari (Ασία) ενημερώνονται κάθε 10 λεπτά.

Πνευματική ιδιοκτησία 2021 EUMETSAT / meteoblue. / Πνευματική ιδιοκτησία 2021 meteoblue

Ραντάρ και πρόγνωση υετού μικρής δειάρκειας για 57.92°Β 56.02°Α

Ψιλοβρέχει
Φως
Μέτρια
Βαριά
Πολύ βαρύ
Χαλάζι

Ο δείκτης θέσης τοποθετείται στο 57.92°Β 56.02°Α. Αυτή η κινούμενη εικόνα δείχνει την ραντάρ βροχόπτωσης για την τελευταία ώρα, καθώς και 1πρόγνωση h. Το ψιλόβροχο ή το ελαφρύ χιόνι μπορεί να είναι αόρατο για το ραντάρ. Η ένταση της βροχόπτωσης είναι χρωματικά κωδικοποιημένη και κυμαίνεται από γαλάζιο έως πορτοκαλί.